Hanjin Chongqing — 3EPJ2 — position and weather

sailwx.info

Track history (hours):
 
Tides and Currents Weather Stations Pressure Air Temp Water Temp Dewpoint Dewpoint Depression Visibility Wind Speed Wind Dir Waves Ship Positions

Hanjin Chongqing

Last reported at 2016-Nov-04 08:23 UTC. Time now 2016-Dec-11 04:11 UTC.
Position N 31°25' W 079°39'.
Warning: this ship's position is 36 days out of date.

Length 304 m; draft 12 m.

Type: Cargo ship. MMSI: 353957976.

Date/timePositionNaut miles runAvg speedWind from/ knotsBaromVisibWave heightAir tempDewpointWater temp
2016-Nov-04 08:23N 31°25' W 079°39'910.9
2016-Nov-04 07:33N 31°29' W 079°48'1111.0
2016-Nov-04 06:32N 31°35' W 079°59'  
2016-Oct-31 13:28N 33°35' W 077°22'1010.8
2016-Oct-31 12:33N 33°41' W 077°12'215 9.3
2016-Oct-30 13:31N 36°35' W 074°38'1010.2
2016-Oct-30 12:33N 36°45' W 074°35'1010.4
2016-Oct-30 11:33N 36°55' W 074°33'3110.2
2016-Oct-30 08:29N 37°26' W 074°25'910.1
2016-Oct-30 07:33N 37°35' W 074°22'2110.4
2016-Oct-30 05:33N 37°55' W 074°18'3410.1
2016-Oct-30 02:10N 38°29' W 074°11'1610.3
2016-Oct-30 00:33N 38°45' W 074°07'1010.2
2016-Oct-29 23:33N 38°55' W 074°04'10 9.7
2016-Oct-29 22:33N 39°05' W 074°02'10 9.8
2016-Oct-29 21:33N 39°14' W 073°60'10 9.6
2016-Oct-29 20:33N 39°24' W 073°57'10 9.7
2016-Oct-29 19:33N 39°33' W 073°55'10 9.7
2016-Oct-29 18:33N 39°43' W 073°53'20 9.9
2016-Oct-29 16:33N 40°03' W 073°50'19 9.3
2016-Oct-29 14:33N 40°21' W 073°49'23 7.5
2016-Oct-29 11:33N 40°40' W 074°05'0 0.0
2016-Oct-29 09:33N 40°40' W 074°05'0 0.0
2016-Oct-29 06:33N 40°40' W 074°05'0 0.0
2016-Oct-29 04:33N 40°40' W 074°05'0 0.0
2016-Oct-29 02:33N 40°40' W 074°05'0 0.0
2016-Oct-28 23:33N 40°40' W 074°05'0 0.0
2016-Oct-28 21:33N 40°40' W 074°05'0 0.0
2016-Oct-28 19:33N 40°40' W 074°05'3 0.9
2016-Oct-28 16:33N 40°41' W 074°09'0 0.0
2016-Oct-28 15:33N 40°41' W 074°09'0 0.0
2016-Oct-28 14:33N 40°41' W 074°09'0 0.0
2016-Oct-28 09:33N 40°41' W 074°09'0 0.0
2016-Oct-28 08:33N 40°41' W 074°09'0 0.0
2016-Oct-28 07:33N 40°41' W 074°09'0 0.0
2016-Oct-28 00:30N 40°41' W 074°09'0 0.0
2016-Oct-27 23:33N 40°41' W 074°09'0 0.0
2016-Oct-27 21:33N 40°41' W 074°09'0 0.0
2016-Oct-27 17:21N 40°41' W 074°09'0 0.0
2016-Oct-27 15:33N 40°41' W 074°09'23 5.9
2016-Oct-27 11:33N 40°24' W 073°47'  
Track history (hours):
 
Tides and Currents Weather Stations Pressure Air Temp Water Temp Dewpoint Dewpoint Depression Visibility Wind Speed Wind Dir Waves Ship Positions

Hanjin Chongqing

Last reported at 2016-Nov-04 08:23 UTC. Time now 2016-Dec-11 04:11 UTC.
Position N 31°25' W 079°39'.
Warning: this ship's position is 36 days out of date.

Length 304 m; draft 12 m.

Type: Cargo ship. MMSI: 353957976.

Date/timePositionNaut miles runAvg speedWind from/ knotsBaromVisibWave heightAir tempDewpointWater temp
2016-Nov-04 08:23N 31°25' W 079°39'910.9
2016-Nov-04 07:33N 31°29' W 079°48'1111.0
2016-Nov-04 06:32N 31°35' W 079°59'  
2016-Oct-31 13:28N 33°35' W 077°22'1010.8
2016-Oct-31 12:33N 33°41' W 077°12'215 9.3
2016-Oct-30 13:31N 36°35' W 074°38'1010.2
2016-Oct-30 12:33N 36°45' W 074°35'1010.4
2016-Oct-30 11:33N 36°55' W 074°33'3110.2
2016-Oct-30 08:29N 37°26' W 074°25'910.1
2016-Oct-30 07:33N 37°35' W 074°22'2110.4
2016-Oct-30 05:33N 37°55' W 074°18'3410.1
2016-Oct-30 02:10N 38°29' W 074°11'1610.3
2016-Oct-30 00:33N 38°45' W 074°07'1010.2
2016-Oct-29 23:33N 38°55' W 074°04'10 9.7
2016-Oct-29 22:33N 39°05' W 074°02'10 9.8
2016-Oct-29 21:33N 39°14' W 073°60'10 9.6
2016-Oct-29 20:33N 39°24' W 073°57'10 9.7
2016-Oct-29 19:33N 39°33' W 073°55'10 9.7
2016-Oct-29 18:33N 39°43' W 073°53'20 9.9
2016-Oct-29 16:33N 40°03' W 073°50'19 9.3
2016-Oct-29 14:33N 40°21' W 073°49'23 7.5
2016-Oct-29 11:33N 40°40' W 074°05'0 0.0
2016-Oct-29 09:33N 40°40' W 074°05'0 0.0
2016-Oct-29 06:33N 40°40' W 074°05'0 0.0
2016-Oct-29 04:33N 40°40' W 074°05'0 0.0
2016-Oct-29 02:33N 40°40' W 074°05'0 0.0
2016-Oct-28 23:33N 40°40' W 074°05'0 0.0
2016-Oct-28 21:33N 40°40' W 074°05'0 0.0
2016-Oct-28 19:33N 40°40' W 074°05'3 0.9
2016-Oct-28 16:33N 40°41' W 074°09'0 0.0
2016-Oct-28 15:33N 40°41' W 074°09'0 0.0
2016-Oct-28 14:33N 40°41' W 074°09'0 0.0
2016-Oct-28 09:33N 40°41' W 074°09'0 0.0
2016-Oct-28 08:33N 40°41' W 074°09'0 0.0
2016-Oct-28 07:33N 40°41' W 074°09'0 0.0
2016-Oct-28 00:30N 40°41' W 074°09'0 0.0
2016-Oct-27 23:33N 40°41' W 074°09'0 0.0
2016-Oct-27 21:33N 40°41' W 074°09'0 0.0
2016-Oct-27 17:21N 40°41' W 074°09'0 0.0
2016-Oct-27 15:33N 40°41' W 074°09'23 5.9
2016-Oct-27 11:33N 40°24' W 073°47'  

Dump ship's entire track history